sensor_id;sensor_type;location;lat;lon;timestamp;temperature;humidity
1103;DHT22;538;42.654;23.376;2023-06-19T00:07:01;19.60;30.00
1103;DHT22;538;42.654;23.376;2023-06-19T00:09:28;20.00;30.80
1103;DHT22;538;42.654;23.376;2023-06-19T00:16:51;19.40;30.90
1103;DHT22;538;42.654;23.376;2023-06-19T00:19:19;19.30;30.20
1103;DHT22;538;42.654;23.376;2023-06-19T00:36:32;18.60;30.20
1103;DHT22;538;42.654;23.376;2023-06-19T00:39:05;19.20;31.00
1103;DHT22;538;42.654;23.376;2023-06-19T00:41:34;17.90;29.80
1103;DHT22;538;42.654;23.376;2023-06-19T00:44:02;19.30;31.20
1103;DHT22;538;42.654;23.376;2023-06-19T00:48:56;18.40;33.70
1103;DHT22;538;42.654;23.376;2023-06-19T00:51:23;19.40;31.80
1103;DHT22;538;42.654;23.376;2023-06-19T01:08:53;18.90;30.90
1103;DHT22;538;42.654;23.376;2023-06-19T01:16:24;19.20;31.10
1103;DHT22;538;42.654;23.376;2023-06-19T01:18:51;18.90;31.10
1103;DHT22;538;42.654;23.376;2023-06-19T01:21:20;18.60;31.20
1103;DHT22;538;42.654;23.376;2023-06-19T01:23:48;18.90;31.40
1103;DHT22;538;42.654;23.376;2023-06-19T01:26:16;18.90;32.00
1103;DHT22;538;42.654;23.376;2023-06-19T01:28:44;18.80;32.40
1103;DHT22;538;42.654;23.376;2023-06-19T01:33:42;18.60;32.70
1103;DHT22;538;42.654;23.376;2023-06-19T01:36:10;18.60;32.80
1103;DHT22;538;42.654;23.376;2023-06-19T01:38:38;18.60;33.10
1103;DHT22;538;42.654;23.376;2023-06-19T01:41:08;18.60;33.40
1103;DHT22;538;42.654;23.376;2023-06-19T01:43:37;18.60;33.50
1103;DHT22;538;42.654;23.376;2023-06-19T01:46:04;19.10;34.00
1103;DHT22;538;42.654;23.376;2023-06-19T01:48:32;18.70;33.70
1103;DHT22;538;42.654;23.376;2023-06-19T01:50:59;18.60;34.40
1103;DHT22;538;42.654;23.376;2023-06-19T01:53:26;18.70;34.30
1103;DHT22;538;42.654;23.376;2023-06-19T01:58:24;18.60;34.80
1103;DHT22;538;42.654;23.376;2023-06-19T02:00:51;18.50;34.90
1103;DHT22;538;42.654;23.376;2023-06-19T02:05:45;18.50;35.10
1103;DHT22;538;42.654;23.376;2023-06-19T02:08:12;18.60;35.70
1103;DHT22;538;42.654;23.376;2023-06-19T02:10:39;18.30;35.80
1103;DHT22;538;42.654;23.376;2023-06-19T02:13:06;18.50;36.00
1103;DHT22;538;42.654;23.376;2023-06-19T02:15:35;18.50;36.00
1103;DHT22;538;42.654;23.376;2023-06-19T02:18:02;18.50;36.20
1103;DHT22;538;42.654;23.376;2023-06-19T02:20:30;18.30;36.70
1103;DHT22;538;42.654;23.376;2023-06-19T02:22:57;18.70;36.80
1103;DHT22;538;42.654;23.376;2023-06-19T02:25:24;18.30;36.30
1103;DHT22;538;42.654;23.376;2023-06-19T02:27:51;18.20;37.10
1103;DHT22;538;42.654;23.376;2023-06-19T02:30:18;18.60;37.80
1103;DHT22;538;42.654;23.376;2023-06-19T02:32:47;18.30;37.80
1103;DHT22;538;42.654;23.376;2023-06-19T02:35:14;17.90;39.00
1103;DHT22;538;42.654;23.376;2023-06-19T02:37:41;19.00;40.30
1103;DHT22;538;42.654;23.376;2023-06-19T02:40:09;18.30;38.90
1103;DHT22;538;42.654;23.376;2023-06-19T02:42:36;18.10;38.30
1103;DHT22;538;42.654;23.376;2023-06-19T02:45:04;18.10;37.90
1103;DHT22;538;42.654;23.376;2023-06-19T02:47:31;18.50;39.20
1103;DHT22;538;42.654;23.376;2023-06-19T02:50:00;18.20;39.70
1103;DHT22;538;42.654;23.376;2023-06-19T02:52:28;18.10;40.40
1103;DHT22;538;42.654;23.376;2023-06-19T02:54:55;18.40;40.10
1103;DHT22;538;42.654;23.376;2023-06-19T02:59:49;18.10;39.60
1103;DHT22;538;42.654;23.376;2023-06-19T03:02:16;18.20;40.20
1103;DHT22;538;42.654;23.376;2023-06-19T03:04:44;18.00;40.40
1103;DHT22;538;42.654;23.376;2023-06-19T03:07:12;17.90;41.50
1103;DHT22;538;42.654;23.376;2023-06-19T03:09:40;18.10;41.90
1103;DHT22;538;42.654;23.376;2023-06-19T03:12:08;18.10;42.30
1103;DHT22;538;42.654;23.376;2023-06-19T03:14:35;18.00;44.10
1103;DHT22;538;42.654;23.376;2023-06-19T03:17:03;18.50;45.70
1103;DHT22;538;42.654;23.376;2023-06-19T03:21:58;18.00;46.60
1103;DHT22;538;42.654;23.376;2023-06-19T03:24:26;18.00;47.40
1103;DHT22;538;42.654;23.376;2023-06-19T03:26:53;17.90;47.20
1103;DHT22;538;42.654;23.376;2023-06-19T03:31:47;17.80;49.10
1103;DHT22;538;42.654;23.376;2023-06-19T03:34:14;17.50;49.00
1103;DHT22;538;42.654;23.376;2023-06-19T03:36:41;17.50;47.70
1103;DHT22;538;42.654;23.376;2023-06-19T03:39:08;17.60;48.30
1103;DHT22;538;42.654;23.376;2023-06-19T03:41:37;17.80;48.40
1103;DHT22;538;42.654;23.376;2023-06-19T03:44:04;17.90;48.50
1103;DHT22;538;42.654;23.376;2023-06-19T03:46:31;17.70;50.00
1103;DHT22;538;42.654;23.376;2023-06-19T03:48:58;17.70;49.70
1103;DHT22;538;42.654;23.376;2023-06-19T03:51:26;17.80;49.90
1103;DHT22;538;42.654;23.376;2023-06-19T03:53:54;17.90;51.00
1103;DHT22;538;42.654;23.376;2023-06-19T03:56:21;17.90;50.50
1103;DHT22;538;42.654;23.376;2023-06-19T03:58:50;18.00;50.60
1103;DHT22;538;42.654;23.376;2023-06-19T04:01:17;17.90;50.70
1103;DHT22;538;42.654;23.376;2023-06-19T04:03:44;17.90;51.20
1103;DHT22;538;42.654;23.376;2023-06-19T04:06:11;18.00;51.00
1103;DHT22;538;42.654;23.376;2023-06-19T04:08:38;18.00;50.90
1103;DHT22;538;42.654;23.376;2023-06-19T04:11:05;18.00;50.00
1103;DHT22;538;42.654;23.376;2023-06-19T04:13:32;17.90;48.60
1103;DHT22;538;42.654;23.376;2023-06-19T04:16:00;18.00;46.80
1103;DHT22;538;42.654;23.376;2023-06-19T04:18:27;17.90;45.90
1103;DHT22;538;42.654;23.376;2023-06-19T04:23:21;18.10;46.40
1103;DHT22;538;42.654;23.376;2023-06-19T04:25:49;18.70;46.90
1103;DHT22;538;42.654;23.376;2023-06-19T04:28:15;17.90;45.80
1103;DHT22;538;42.654;23.376;2023-06-19T04:30:43;18.40;46.30
1103;DHT22;538;42.654;23.376;2023-06-19T04:33:11;18.60;46.40
1103;DHT22;538;42.654;23.376;2023-06-19T04:35:38;18.10;45.80
1103;DHT22;538;42.654;23.376;2023-06-19T04:38:07;18.30;45.60
1103;DHT22;538;42.654;23.376;2023-06-19T04:40:34;18.30;45.10
1103;DHT22;538;42.654;23.376;2023-06-19T04:45:31;18.40;45.70
1103;DHT22;538;42.654;23.376;2023-06-19T04:57:52;18.40;44.40
1103;DHT22;538;42.654;23.376;2023-06-19T05:00:21;18.40;44.40
1103;DHT22;538;42.654;23.376;2023-06-19T05:05:16;18.60;43.90
1103;DHT22;538;42.654;23.376;2023-06-19T05:07:45;18.40;44.20
1103;DHT22;538;42.654;23.376;2023-06-19T05:10:12;18.70;44.50
1103;DHT22;538;42.654;23.376;2023-06-19T05:12:39;18.70;44.10
1103;DHT22;538;42.654;23.376;2023-06-19T05:15:07;18.80;42.70
1103;DHT22;538;42.654;23.376;2023-06-19T05:17:34;18.90;41.90
1103;DHT22;538;42.654;23.376;2023-06-19T05:22:33;18.80;38.70
1103;DHT22;538;42.654;23.376;2023-06-19T05:25:02;19.00;38.70
1103;DHT22;538;42.654;23.376;2023-06-19T05:27:29;18.80;39.70
1103;DHT22;538;42.654;23.376;2023-06-19T05:29:56;19.00;37.60
1103;DHT22;538;42.654;23.376;2023-06-19T05:34:51;18.70;30.90
1103;DHT22;538;42.654;23.376;2023-06-19T05:39:47;18.40;29.20
1103;DHT22;538;42.654;23.376;2023-06-19T05:42:15;18.90;30.00
1103;DHT22;538;42.654;23.376;2023-06-19T05:47:10;19.00;32.50
1103;DHT22;538;42.654;23.376;2023-06-19T05:52:07;19.00;30.00
1103;DHT22;538;42.654;23.376;2023-06-19T05:54:34;19.00;28.80
1103;DHT22;538;42.654;23.376;2023-06-19T05:57:01;18.90;28.80
1103;DHT22;538;42.654;23.376;2023-06-19T05:59:30;19.20;28.60
1103;DHT22;538;42.654;23.376;2023-06-19T06:01:57;19.10;29.60
1103;DHT22;538;42.654;23.376;2023-06-19T06:04:24;19.30;30.50
1103;DHT22;538;42.654;23.376;2023-06-19T06:06:51;19.30;31.10
1103;DHT22;538;42.654;23.376;2023-06-19T06:09:18;19.30;31.00
1103;DHT22;538;42.654;23.376;2023-06-19T06:14:14;19.60;28.80
1103;DHT22;538;42.654;23.376;2023-06-19T06:16:42;19.30;27.90
1103;DHT22;538;42.654;23.376;2023-06-19T06:21:36;19.70;29.30
1103;DHT22;538;42.654;23.376;2023-06-19T06:26:31;19.60;28.10
1103;DHT22;538;42.654;23.376;2023-06-19T06:31:26;19.80;27.30
1103;DHT22;538;42.654;23.376;2023-06-19T06:33:54;19.60;27.50
1103;DHT22;538;42.654;23.376;2023-06-19T06:36:22;19.90;26.90
1103;DHT22;538;42.654;23.376;2023-06-19T06:38:49;20.00;27.60
1103;DHT22;538;42.654;23.376;2023-06-19T06:41:16;20.10;28.30
1103;DHT22;538;42.654;23.376;2023-06-19T06:43:43;20.10;28.70
1103;DHT22;538;42.654;23.376;2023-06-19T06:46:10;20.20;26.50
1103;DHT22;538;42.654;23.376;2023-06-19T06:48:37;20.40;27.70
1103;DHT22;538;42.654;23.376;2023-06-19T06:53:41;20.50;25.50
1103;DHT22;538;42.654;23.376;2023-06-19T07:01:08;20.40;25.50
1103;DHT22;538;42.654;23.376;2023-06-19T07:11:00;20.60;23.10
1103;DHT22;538;42.654;23.376;2023-06-19T07:13:32;20.70;23.60
1103;DHT22;538;42.654;23.376;2023-06-19T07:16:00;20.80;23.70
1103;DHT22;538;42.654;23.376;2023-06-19T07:20:54;20.90;22.40
1103;DHT22;538;42.654;23.376;2023-06-19T07:23:22;21.80;23.30
1103;DHT22;538;42.654;23.376;2023-06-19T07:25:51;21.10;22.70
1103;DHT22;538;42.654;23.376;2023-06-19T07:30:46;21.30;21.90
1103;DHT22;538;42.654;23.376;2023-06-19T07:33:13;21.50;21.20
1103;DHT22;538;42.654;23.376;2023-06-19T07:38:08;21.60;20.60
1103;DHT22;538;42.654;23.376;2023-06-19T07:43:04;21.50;18.10
1103;DHT22;538;42.654;23.376;2023-06-19T07:45:31;21.70;19.20
1103;DHT22;538;42.654;23.376;2023-06-19T07:47:58;21.70;18.90
1103;DHT22;538;42.654;23.376;2023-06-19T07:50:25;21.60;17.50
1103;DHT22;538;42.654;23.376;2023-06-19T07:52:53;21.90;17.90
1103;DHT22;538;42.654;23.376;2023-06-19T07:55:20;21.50;17.20
1103;DHT22;538;42.654;23.376;2023-06-19T07:57:47;21.80;18.00
1103;DHT22;538;42.654;23.376;2023-06-19T08:00:16;21.90;19.10
1103;DHT22;538;42.654;23.376;2023-06-19T08:05:11;22.20;19.00
1103;DHT22;538;42.654;23.376;2023-06-19T08:07:38;22.20;19.50
1103;DHT22;538;42.654;23.376;2023-06-19T08:10:06;22.30;17.30
1103;DHT22;538;42.654;23.376;2023-06-19T08:12:34;22.30;17.60
1103;DHT22;538;42.654;23.376;2023-06-19T08:15:01;22.40;16.80
1103;DHT22;538;42.654;23.376;2023-06-19T08:17:30;22.20;17.60
1103;DHT22;538;42.654;23.376;2023-06-19T08:19:57;22.40;18.00
1103;DHT22;538;42.654;23.376;2023-06-19T08:22:24;22.40;14.90
1103;DHT22;538;42.654;23.376;2023-06-19T08:24:51;22.60;14.20
1103;DHT22;538;42.654;23.376;2023-06-19T08:29:45;22.50;14.90
1103;DHT22;538;42.654;23.376;2023-06-19T08:32:12;22.60;16.00
1103;DHT22;538;42.654;23.376;2023-06-19T08:34:41;22.70;13.90
1103;DHT22;538;42.654;23.376;2023-06-19T08:37:08;22.90;13.60
1103;DHT22;538;42.654;23.376;2023-06-19T08:39:35;22.50;14.10
1103;DHT22;538;42.654;23.376;2023-06-19T08:42:04;22.80;14.30
1103;DHT22;538;42.654;23.376;2023-06-19T08:44:33;22.90;12.40
1103;DHT22;538;42.654;23.376;2023-06-19T08:47:02;23.00;12.20
1103;DHT22;538;42.654;23.376;2023-06-19T08:49:29;22.90;11.20
1103;DHT22;538;42.654;23.376;2023-06-19T08:51:58;22.90;12.80
1103;DHT22;538;42.654;23.376;2023-06-19T08:54:25;23.00;14.80
1103;DHT22;538;42.654;23.376;2023-06-19T08:59:20;23.20;11.30
1103;DHT22;538;42.654;23.376;2023-06-19T09:04:19;23.20;11.80
1103;DHT22;538;42.654;23.376;2023-06-19T09:06:49;23.40;11.00
1103;DHT22;538;42.654;23.376;2023-06-19T09:09:19;23.50;11.80
1103;DHT22;538;42.654;23.376;2023-06-19T09:14:33;23.50;12.50
1103;DHT22;538;42.654;23.376;2023-06-19T09:17:01;23.40;13.80
1103;DHT22;538;42.654;23.376;2023-06-19T09:19:29;23.60;14.60
1103;DHT22;538;42.654;23.376;2023-06-19T09:22:00;24.20;14.10
1103;DHT22;538;42.654;23.376;2023-06-19T09:24:35;24.20;12.20
1103;DHT22;538;42.654;23.376;2023-06-19T09:29:39;24.20;9.90
1103;DHT22;538;42.654;23.376;2023-06-19T09:32:17;24.20;8.40
1103;DHT22;538;42.654;23.376;2023-06-19T09:34:44;24.00;7.90
1103;DHT22;538;42.654;23.376;2023-06-19T09:37:11;24.30;9.00
1103;DHT22;538;42.654;23.376;2023-06-19T09:39:40;24.40;9.90
1103;DHT22;538;42.654;23.376;2023-06-19T09:42:08;24.80;9.50
1103;DHT22;538;42.654;23.376;2023-06-19T09:44:39;24.80;8.40
1103;DHT22;538;42.654;23.376;2023-06-19T09:47:15;25.20;8.70
1103;DHT22;538;42.654;23.376;2023-06-19T09:49:48;25.40;7.10
1103;DHT22;538;42.654;23.376;2023-06-19T09:52:16;25.30;7.70
1103;DHT22;538;42.654;23.376;2023-06-19T09:54:46;25.90;9.10
1103;DHT22;538;42.654;23.376;2023-06-19T09:59:46;26.30;6.50
1103;DHT22;538;42.654;23.376;2023-06-19T10:02:14;26.30;6.40
1103;DHT22;538;42.654;23.376;2023-06-19T10:04:46;26.40;6.10
1103;DHT22;538;42.654;23.376;2023-06-19T10:07:17;26.70;6.30
1103;DHT22;538;42.654;23.376;2023-06-19T10:12:39;26.90;4.10
1103;DHT22;538;42.654;23.376;2023-06-19T10:15:12;27.10;3.50
1103;DHT22;538;42.654;23.376;2023-06-19T10:17:44;27.00;3.00
1103;DHT22;538;42.654;23.376;2023-06-19T10:20:25;26.90;3.80
1103;DHT22;538;42.654;23.376;2023-06-19T10:22:57;26.90;4.70
1103;DHT22;538;42.654;23.376;2023-06-19T10:25:31;27.20;2.60
1103;DHT22;538;42.654;23.376;2023-06-19T10:27:59;27.50;1.00
1103;DHT22;538;42.654;23.376;2023-06-19T10:30:26;27.60;1.50
1103;DHT22;538;42.654;23.376;2023-06-19T10:32:53;27.80;1.10
1103;DHT22;538;42.654;23.376;2023-06-19T10:35:20;27.80;1.00
1103;DHT22;538;42.654;23.376;2023-06-19T10:37:49;28.00;2.60
1103;DHT22;538;42.654;23.376;2023-06-19T10:42:46;27.90;1.80
1103;DHT22;538;42.654;23.376;2023-06-19T10:45:14;27.80;2.00
1103;DHT22;538;42.654;23.376;2023-06-19T10:47:43;28.00;1.90
1103;DHT22;538;42.654;23.376;2023-06-19T10:50:11;28.10;1.00
1103;DHT22;538;42.654;23.376;2023-06-19T10:52:42;28.00;1.40
1103;DHT22;538;42.654;23.376;2023-06-19T10:55:11;27.90;1.60
1103;DHT22;538;42.654;23.376;2023-06-19T10:57:39;28.20;1.40
1103;DHT22;538;42.654;23.376;2023-06-19T11:00:09;28.00;1.00
1103;DHT22;538;42.654;23.376;2023-06-19T11:05:11;27.80;1.70
1103;DHT22;538;42.654;23.376;2023-06-19T11:07:39;27.40;1.30
1103;DHT22;538;42.654;23.376;2023-06-19T11:10:19;27.80;2.90
1103;DHT22;538;42.654;23.376;2023-06-19T11:12:46;27.80;2.40
1103;DHT22;538;42.654;23.376;2023-06-19T11:15:17;27.90;2.40
1103;DHT22;538;42.654;23.376;2023-06-19T11:17:45;28.00;2.60
1103;DHT22;538;42.654;23.376;2023-06-19T11:20:13;27.90;2.40
1103;DHT22;538;42.654;23.376;2023-06-19T11:22:43;27.90;2.60
1103;DHT22;538;42.654;23.376;2023-06-19T11:25:13;27.70;2.40
1103;DHT22;538;42.654;23.376;2023-06-19T11:27:40;27.70;3.60
1103;DHT22;538;42.654;23.376;2023-06-19T11:30:09;27.70;5.00
1103;DHT22;538;42.654;23.376;2023-06-19T11:32:38;27.80;5.80
1103;DHT22;538;42.654;23.376;2023-06-19T11:37:47;28.10;5.80
1103;DHT22;538;42.654;23.376;2023-06-19T11:40:14;28.30;6.20
1103;DHT22;538;42.654;23.376;2023-06-19T11:42:47;28.50;6.50
1103;DHT22;538;42.654;23.376;2023-06-19T11:45:17;29.30;6.40
1103;DHT22;538;42.654;23.376;2023-06-19T11:47:46;29.40;3.50
1103;DHT22;538;42.654;23.376;2023-06-19T11:50:15;29.60;2.80
1103;DHT22;538;42.654;23.376;2023-06-19T11:52:43;29.30;2.80
1103;DHT22;538;42.654;23.376;2023-06-19T11:55:11;29.20;2.40
1103;DHT22;538;42.654;23.376;2023-06-19T11:57:39;29.10;3.50
1103;DHT22;538;42.654;23.376;2023-06-19T12:00:15;28.90;3.90
1103;DHT22;538;42.654;23.376;2023-06-19T12:02:50;28.50;3.40
1103;DHT22;538;42.654;23.376;2023-06-19T12:05:19;28.30;3.70
1103;DHT22;538;42.654;23.376;2023-06-19T12:07:46;28.20;4.60
1103;DHT22;538;42.654;23.376;2023-06-19T12:10:13;28.10;5.90
1103;DHT22;538;42.654;23.376;2023-06-19T12:15:10;28.90;6.20
1103;DHT22;538;42.654;23.376;2023-06-19T12:17:37;29.00;5.90
1103;DHT22;538;42.654;23.376;2023-06-19T12:20:07;29.20;5.90
1103;DHT22;538;42.654;23.376;2023-06-19T12:22:34;29.60;3.50
1103;DHT22;538;42.654;23.376;2023-06-19T12:25:02;29.60;2.90
1103;DHT22;538;42.654;23.376;2023-06-19T12:27:29;29.50;3.50
1103;DHT22;538;42.654;23.376;2023-06-19T12:29:56;29.50;3.60
1103;DHT22;538;42.654;23.376;2023-06-19T12:32:24;29.80;4.40
1103;DHT22;538;42.654;23.376;2023-06-19T12:34:51;30.10;4.30
1103;DHT22;538;42.654;23.376;2023-06-19T12:37:21;30.10;2.90
1103;DHT22;538;42.654;23.376;2023-06-19T12:42:15;30.60;3.40
1103;DHT22;538;42.654;23.376;2023-06-19T12:44:45;31.30;2.10
1103;DHT22;538;42.654;23.376;2023-06-19T12:47:13;32.50;1.00
1103;DHT22;538;42.654;23.376;2023-06-19T12:49:40;33.30;1.00
1103;DHT22;538;42.654;23.376;2023-06-19T12:52:10;34.10;1.00
1103;DHT22;538;42.654;23.376;2023-06-19T12:54:39;34.80;1.00
1103;DHT22;538;42.654;23.376;2023-06-19T12:57:07;35.30;1.00
1103;DHT22;538;42.654;23.376;2023-06-19T12:59:37;34.80;1.00
1103;DHT22;538;42.654;23.376;2023-06-19T13:04:33;34.40;1.00
1103;DHT22;538;42.654;23.376;2023-06-19T13:07:00;34.50;1.00
1103;DHT22;538;42.654;23.376;2023-06-19T13:09:27;34.60;1.00
1103;DHT22;538;42.654;23.376;2023-06-19T13:11:55;34.80;1.00
1103;DHT22;538;42.654;23.376;2023-06-19T13:14:25;35.10;1.00
1103;DHT22;538;42.654;23.376;2023-06-19T13:16:53;34.70;1.00
1103;DHT22;538;42.654;23.376;2023-06-19T13:19:23;33.80;1.00
1103;DHT22;538;42.654;23.376;2023-06-19T13:21:53;33.40;1.00
1103;DHT22;538;42.654;23.376;2023-06-19T13:24:23;33.20;1.00
1103;DHT22;538;42.654;23.376;2023-06-19T13:26:51;33.00;1.00
1103;DHT22;538;42.654;23.376;2023-06-19T13:29:20;33.30;1.00
1103;DHT22;538;42.654;23.376;2023-06-19T13:31:47;33.70;1.00
1103;DHT22;538;42.654;23.376;2023-06-19T13:34:14;34.60;1.00
1103;DHT22;538;42.654;23.376;2023-06-19T13:36:41;35.60;1.00
1103;DHT22;538;42.654;23.376;2023-06-19T13:39:08;36.00;1.00
1103;DHT22;538;42.654;23.376;2023-06-19T13:41:36;36.10;1.00
1103;DHT22;538;42.654;23.376;2023-06-19T13:44:03;36.10;1.00
1103;DHT22;538;42.654;23.376;2023-06-19T13:46:32;36.40;1.00
1103;DHT22;538;42.654;23.376;2023-06-19T13:48:59;37.30;1.00
1103;DHT22;538;42.654;23.376;2023-06-19T13:53:54;39.00;1.00
1103;DHT22;538;42.654;23.376;2023-06-19T13:58:49;39.20;1.00
1103;DHT22;538;42.654;23.376;2023-06-19T14:01:16;38.80;1.00
1103;DHT22;538;42.654;23.376;2023-06-19T14:03:45;38.40;1.00
1103;DHT22;538;42.654;23.376;2023-06-19T14:06:13;38.30;1.00
1103;DHT22;538;42.654;23.376;2023-06-19T14:08:40;38.40;1.00
1103;DHT22;538;42.654;23.376;2023-06-19T14:11:07;38.90;1.00
1103;DHT22;538;42.654;23.376;2023-06-19T14:13:34;39.40;1.00
1103;DHT22;538;42.654;23.376;2023-06-19T14:16:01;39.20;1.00
1103;DHT22;538;42.654;23.376;2023-06-19T14:18:28;38.60;1.00
1103;DHT22;538;42.654;23.376;2023-06-19T14:20:57;37.50;1.00
1103;DHT22;538;42.654;23.376;2023-06-19T14:25:53;37.70;1.00
1103;DHT22;538;42.654;23.376;2023-06-19T14:28:20;37.60;1.00
1103;DHT22;538;42.654;23.376;2023-06-19T14:30:47;37.20;1.00
1103;DHT22;538;42.654;23.376;2023-06-19T14:35:41;36.60;1.00
1103;DHT22;538;42.654;23.376;2023-06-19T14:38:12;36.10;1.00
1103;DHT22;538;42.654;23.376;2023-06-19T14:40:40;35.80;1.00
1103;DHT22;538;42.654;23.376;2023-06-19T14:43:08;35.30;1.00
1103;DHT22;538;42.654;23.376;2023-06-19T14:45:35;34.80;1.00
1103;DHT22;538;42.654;23.376;2023-06-19T14:48:04;34.50;1.00
1103;DHT22;538;42.654;23.376;2023-06-19T14:50:31;34.90;1.00
1103;DHT22;538;42.654;23.376;2023-06-19T14:52:59;35.40;1.00
1103;DHT22;538;42.654;23.376;2023-06-19T14:55:28;35.60;1.00
1103;DHT22;538;42.654;23.376;2023-06-19T14:57:55;36.10;1.00
1103;DHT22;538;42.654;23.376;2023-06-19T15:00:22;36.40;1.00
1103;DHT22;538;42.654;23.376;2023-06-19T15:02:49;36.90;1.00
1103;DHT22;538;42.654;23.376;2023-06-19T15:05:16;37.00;1.00
1103;DHT22;538;42.654;23.376;2023-06-19T15:07:43;36.80;1.00
1103;DHT22;538;42.654;23.376;2023-06-19T15:12:39;36.60;1.00
1103;DHT22;538;42.654;23.376;2023-06-19T15:15:07;37.00;1.00
1103;DHT22;538;42.654;23.376;2023-06-19T15:17:34;37.30;1.00
1103;DHT22;538;42.654;23.376;2023-06-19T15:20:02;37.10;1.00
1103;DHT22;538;42.654;23.376;2023-06-19T15:22:29;37.30;1.00
1103;DHT22;538;42.654;23.376;2023-06-19T15:24:56;37.30;1.00
1103;DHT22;538;42.654;23.376;2023-06-19T15:27:23;36.80;1.00
1103;DHT22;538;42.654;23.376;2023-06-19T15:29:51;36.60;1.00
1103;DHT22;538;42.654;23.376;2023-06-19T15:34:45;36.80;1.00
1103;DHT22;538;42.654;23.376;2023-06-19T15:39:41;36.80;1.00
1103;DHT22;538;42.654;23.376;2023-06-19T15:42:10;36.90;1.00
1103;DHT22;538;42.654;23.376;2023-06-19T15:44:37;36.50;1.00
1103;DHT22;538;42.654;23.376;2023-06-19T15:47:06;36.10;1.00
1103;DHT22;538;42.654;23.376;2023-06-19T15:49:33;36.00;1.00
1103;DHT22;538;42.654;23.376;2023-06-19T15:52:02;35.40;1.00
1103;DHT22;538;42.654;23.376;2023-06-19T15:54:29;35.20;1.00
1103;DHT22;538;42.654;23.376;2023-06-19T15:59:24;34.80;1.00
1103;DHT22;538;42.654;23.376;2023-06-19T16:01:51;34.60;1.00
1103;DHT22;538;42.654;23.376;2023-06-19T16:04:19;34.40;1.00
1103;DHT22;538;42.654;23.376;2023-06-19T16:06:46;34.10;1.00
1103;DHT22;538;42.654;23.376;2023-06-19T16:09:13;34.00;1.00
1103;DHT22;538;42.654;23.376;2023-06-19T16:11:42;33.90;1.00
1103;DHT22;538;42.654;23.376;2023-06-19T16:14:11;33.70;1.00
1103;DHT22;538;42.654;23.376;2023-06-19T16:16:38;33.60;1.00
1103;DHT22;538;42.654;23.376;2023-06-19T16:19:05;33.30;1.00
1103;DHT22;538;42.654;23.376;2023-06-19T16:21:34;33.40;1.00
1103;DHT22;538;42.654;23.376;2023-06-19T16:24:01;33.30;1.00
1103;DHT22;538;42.654;23.376;2023-06-19T16:28:56;32.90;1.00
1103;DHT22;538;42.654;23.376;2023-06-19T16:33:55;32.40;1.00
1103;DHT22;538;42.654;23.376;2023-06-19T16:36:25;31.90;1.00
1103;DHT22;538;42.654;23.376;2023-06-19T16:38:53;31.50;1.00
1103;DHT22;538;42.654;23.376;2023-06-19T16:56:07;29.80;1.00
1103;DHT22;538;42.654;23.376;2023-06-19T16:58:34;29.70;1.00
1103;DHT22;538;42.654;23.376;2023-06-19T17:01:01;29.50;1.00
1103;DHT22;538;42.654;23.376;2023-06-19T17:10:50;28.80;1.00
1103;DHT22;538;42.654;23.376;2023-06-19T17:13:19;28.40;1.00
1103;DHT22;538;42.654;23.376;2023-06-19T17:27:11;27.40;3.70
1103;DHT22;538;42.654;23.376;2023-06-19T17:29:40;27.30;4.30
1103;DHT22;538;42.654;23.376;2023-06-19T17:32:08;27.20;4.60
1103;DHT22;538;42.654;23.376;2023-06-19T17:34:38;27.20;4.50
1103;DHT22;538;42.654;23.376;2023-06-19T17:37:06;26.90;4.80
1103;DHT22;538;42.654;23.376;2023-06-19T17:42:00;26.70;6.00
1103;DHT22;538;42.654;23.376;2023-06-19T17:46:57;26.50;6.00
1103;DHT22;538;42.654;23.376;2023-06-19T17:49:25;26.40;6.40
1103;DHT22;538;42.654;23.376;2023-06-19T17:51:52;26.30;6.60
1103;DHT22;538;42.654;23.376;2023-06-19T18:01:42;25.70;7.50
1103;DHT22;538;42.654;23.376;2023-06-19T18:04:10;25.50;7.60
1103;DHT22;538;42.654;23.376;2023-06-19T18:09:05;25.60;8.40
1103;DHT22;538;42.654;23.376;2023-06-19T18:11:33;25.50;8.90
1103;DHT22;538;42.654;23.376;2023-06-19T18:14:01;25.20;9.20
1103;DHT22;538;42.654;23.376;2023-06-19T18:16:28;25.20;10.00
1103;DHT22;538;42.654;23.376;2023-06-19T18:18:55;25.20;10.30
1103;DHT22;538;42.654;23.376;2023-06-19T18:21:23;25.20;10.40
1103;DHT22;538;42.654;23.376;2023-06-19T18:23:50;25.30;11.10
1103;DHT22;538;42.654;23.376;2023-06-19T18:26:17;25.00;10.70
1103;DHT22;538;42.654;23.376;2023-06-19T18:33:39;25.00;11.10
1103;DHT22;538;42.654;23.376;2023-06-19T18:36:06;24.80;11.30
1103;DHT22;538;42.654;23.376;2023-06-19T18:41:02;24.70;11.40
1103;DHT22;538;42.654;23.376;2023-06-19T18:50:53;24.50;12.40
1103;DHT22;538;42.654;23.376;2023-06-19T18:53:21;24.20;12.40
1103;DHT22;538;42.654;23.376;2023-06-19T18:55:49;24.10;12.60
1103;DHT22;538;42.654;23.376;2023-06-19T18:58:18;24.10;12.80
1103;DHT22;538;42.654;23.376;2023-06-19T19:00:47;24.00;13.10
1103;DHT22;538;42.654;23.376;2023-06-19T19:03:15;24.00;13.20
1103;DHT22;538;42.654;23.376;2023-06-19T19:08:10;23.80;14.00
1103;DHT22;538;42.654;23.376;2023-06-19T19:10:38;23.80;14.10
1103;DHT22;538;42.654;23.376;2023-06-19T19:13:09;23.80;14.60
1103;DHT22;538;42.654;23.376;2023-06-19T19:15:37;23.80;14.60
1103;DHT22;538;42.654;23.376;2023-06-19T19:18:06;23.70;14.40
1103;DHT22;538;42.654;23.376;2023-06-19T19:25:32;23.70;14.20
1103;DHT22;538;42.654;23.376;2023-06-19T19:30:31;23.50;14.50
1103;DHT22;538;42.654;23.376;2023-06-19T19:33:03;23.40;14.50
1103;DHT22;538;42.654;23.376;2023-06-19T19:37:59;23.10;14.70
1103;DHT22;538;42.654;23.376;2023-06-19T19:40:26;23.20;14.80
1103;DHT22;538;42.654;23.376;2023-06-19T19:42:54;23.20;14.90
1103;DHT22;538;42.654;23.376;2023-06-19T19:45:21;23.20;15.10
1103;DHT22;538;42.654;23.376;2023-06-19T19:48:02;23.10;15.10
1103;DHT22;538;42.654;23.376;2023-06-19T19:50:33;23.00;15.30
1103;DHT22;538;42.654;23.376;2023-06-19T19:53:06;22.80;15.20
1103;DHT22;538;42.654;23.376;2023-06-19T19:55:33;23.00;15.80
1103;DHT22;538;42.654;23.376;2023-06-19T19:58:06;22.80;15.80
1103;DHT22;538;42.654;23.376;2023-06-19T20:00:34;22.90;15.80
1103;DHT22;538;42.654;23.376;2023-06-19T20:03:03;22.70;15.70
1103;DHT22;538;42.654;23.376;2023-06-19T20:08:03;22.70;16.00
1103;DHT22;538;42.654;23.376;2023-06-19T20:10:31;22.60;15.90
1103;DHT22;538;42.654;23.376;2023-06-19T20:12:59;22.50;15.80
1103;DHT22;538;42.654;23.376;2023-06-19T20:15:26;22.60;15.80
1103;DHT22;538;42.654;23.376;2023-06-19T20:17:53;22.50;15.90
1103;DHT22;538;42.654;23.376;2023-06-19T20:20:21;22.50;15.80
1103;DHT22;538;42.654;23.376;2023-06-19T20:22:49;22.30;15.90
1103;DHT22;538;42.654;23.376;2023-06-19T20:25:16;22.40;16.30
1103;DHT22;538;42.654;23.376;2023-06-19T20:27:43;22.30;16.20
1103;DHT22;538;42.654;23.376;2023-06-19T20:30:12;22.20;16.30
1103;DHT22;538;42.654;23.376;2023-06-19T20:32:39;22.10;16.40
1103;DHT22;538;42.654;23.376;2023-06-19T20:35:07;22.10;16.70
1103;DHT22;538;42.654;23.376;2023-06-19T20:37:52;22.20;16.90
1103;DHT22;538;42.654;23.376;2023-06-19T20:50:18;21.90;17.40